Time;durP1;ratioP1;P1;durP2;ratioP2;P2;SDS_P1;SDS_P2;PMS_P1;PMS_P2;Temp;Humidity;BMP_temperature;BMP_pressure;BME280_temperature;BME280_humidity;BME280_pressure;Samples;Min_cycle;Max_cycle;Signal;HPM_P1;HPM_P2
2022/03/05 00:01:04;;;;;;;20.98;8.80;;;;;;;;;;5032719;28;20146;-76
2022/03/05 00:03:32;;;;;;;19.15;9.68;;;;;;;;;;5031923;28;20045;-74
2022/03/05 00:06:01;;;;;;;20.08;9.38;;;;;;;;;;5037334;28;20053;-74
2022/03/05 00:08:30;;;;;;;21.88;9.60;;;;;;;;;;5035191;28;20045;-74
2022/03/05 00:10:58;;;;;;;22.63;10.27;;;;;;;;;;5037156;28;20064;-74
2022/03/05 00:13:26;;;;;;;21.33;9.57;;;;;;;;;;5032707;28;20044;-74
2022/03/05 00:15:55;;;;;;;21.98;8.95;;;;;;;;;;5033104;28;20134;-74
2022/03/05 00:18:23;;;;;;;19.52;8.90;;;;;;;;;;5037157;28;20045;-75
2022/03/05 00:20:51;;;;;;;20.67;9.68;;;;;;;;;;5030418;28;20132;-77
2022/03/05 00:23:19;;;;;;;19.00;9.00;;;;;;;;;;5033259;28;20049;-73
2022/03/05 00:25:49;;;;;;;28.77;10.45;;;;;;;;;;5033856;28;20157;-74
2022/03/05 00:28:18;;;;;;;22.17;9.68;;;;;;;;;;5034500;28;20136;-76
2022/03/05 00:30:46;;;;;;;20.95;9.55;;;;;;;;;;5033215;28;20166;-75
2022/03/05 00:33:15;;;;;;;20.83;9.32;;;;;;;;;;5033764;28;20056;-74
2022/03/05 00:35:43;;;;;;;22.48;10.45;;;;;;;;;;5036042;28;20080;-75
2022/03/05 00:38:11;;;;;;;26.10;9.75;;;;;;;;;;5036088;28;20068;-73
2022/03/05 00:40:39;;;;;;;23.48;10.10;;;;;;;;;;5031765;28;20146;-77
2022/03/05 00:43:07;;;;;;;24.38;10.23;;;;;;;;;;5037279;28;20106;-77
2022/03/05 00:45:36;;;;;;;22.67;12.25;;;;;;;;;;5031682;28;20073;-74
2022/03/05 00:48:04;;;;;;;22.52;10.40;;;;;;;;;;5029673;28;20127;-75
2022/03/05 00:50:34;;;;;;;22.65;10.38;;;;;;;;;;5033024;28;20049;-74
2022/03/05 00:53:02;;;;;;;24.23;10.00;;;;;;;;;;5028557;28;20542;-73
2022/03/05 00:55:29;;;;;;;27.98;11.77;;;;;;;;;;5034604;28;20037;-73
2022/03/05 00:57:57;;;;;;;26.35;10.77;;;;;;;;;;5030181;28;20629;-73
2022/03/05 01:00:25;;;;;;;28.75;11.27;;;;;;;;;;5033962;28;20052;-74
2022/03/05 01:02:54;;;;;;;27.25;11.23;;;;;;;;;;5033087;28;20053;-74
2022/03/05 01:05:23;;;;;;;29.73;11.88;;;;;;;;;;5032028;28;20048;-74
2022/03/05 01:07:52;;;;;;;26.95;11.50;;;;;;;;;;5032253;28;20716;-74
2022/03/05 01:10:20;;;;;;;28.92;12.95;;;;;;;;;;5034623;28;20049;-74
2022/03/05 01:12:48;;;;;;;30.55;11.55;;;;;;;;;;5031880;28;20063;-75
2022/03/05 01:15:16;;;;;;;27.95;10.68;;;;;;;;;;5035172;28;20052;-74
2022/03/05 01:17:43;;;;;;;27.92;12.52;;;;;;;;;;5032965;28;20162;-74
2022/03/05 01:20:12;;;;;;;30.63;13.30;;;;;;;;;;5032148;28;20052;-74
2022/03/05 01:22:40;;;;;;;30.55;12.88;;;;;;;;;;5034153;28;20059;-73
2022/03/05 01:25:09;;;;;;;28.25;12.00;;;;;;;;;;5034889;28;20052;-73
2022/03/05 01:27:37;;;;;;;32.17;12.55;;;;;;;;;;5031083;28;20048;-73
2022/03/05 01:30:06;;;;;;;29.45;12.55;;;;;;;;;;5032885;28;20048;-73
2022/03/05 01:32:34;;;;;;;29.15;12.57;;;;;;;;;;5033938;28;20057;-74
2022/03/05 01:35:02;;;;;;;32.92;12.20;;;;;;;;;;5032445;28;20104;-73
2022/03/05 01:37:30;;;;;;;27.17;11.57;;;;;;;;;;5031800;28;20044;-73
2022/03/05 01:39:57;;;;;;;31.15;11.88;;;;;;;;;;5032252;28;20044;-74
2022/03/05 01:42:28;;;;;;;28.02;12.50;;;;;;;;;;5037643;28;20459;-75
2022/03/05 01:44:56;;;;;;;33.55;13.90;;;;;;;;;;5030973;28;20362;-75
2022/03/05 01:47:24;;;;;;;34.63;12.50;;;;;;;;;;5033493;28;20095;-75
2022/03/05 01:49:51;;;;;;;29.48;12.25;;;;;;;;;;5031922;28;20053;-75
2022/03/05 01:52:19;;;;;;;30.58;11.55;;;;;;;;;;5031541;28;20045;-73
2022/03/05 01:54:50;;;;;;;29.55;13.32;;;;;;;;;;5031711;28;20056;-73
2022/03/05 01:57:18;;;;;;;29.13;12.60;;;;;;;;;;5032590;28;20381;-73
2022/03/05 01:59:48;;;;;;;32.40;14.15;;;;;;;;;;5033491;28;20206;-74
2022/03/05 02:02:17;;;;;;;36.10;12.40;;;;;;;;;;5032008;28;20076;-74
2022/03/05 02:04:47;;;;;;;31.77;12.27;;;;;;;;;;5035349;28;20041;-75
2022/03/05 02:07:15;;;;;;;35.75;13.82;;;;;;;;;;5034225;28;20053;-74
2022/03/05 02:09:42;;;;;;;30.73;12.18;;;;;;;;;;5034628;28;20053;-73
2022/03/05 02:12:11;;;;;;;29.95;11.23;;;;;;;;;;5033838;28;20148;-74
2022/03/05 02:14:39;;;;;;;30.73;11.93;;;;;;;;;;5033802;28;20053;-74
2022/03/05 02:17:10;;;;;;;34.03;12.10;;;;;;;;;;5033560;28;20322;-73
2022/03/05 02:19:38;;;;;;;33.65;12.48;;;;;;;;;;5032809;28;20477;-73
2022/03/05 02:22:10;;;;;;;32.13;13.00;;;;;;;;;;5031126;28;20090;-75
2022/03/05 02:24:38;;;;;;;29.98;11.82;;;;;;;;;;5034138;28;20086;-75
2022/03/05 02:27:08;;;;;;;29.58;12.77;;;;;;;;;;5033438;28;20747;-75
2022/03/05 02:29:36;;;;;;;28.52;11.60;;;;;;;;;;5034874;28;20071;-74
2022/03/05 02:32:04;;;;;;;33.38;13.20;;;;;;;;;;5032234;28;20064;-74
2022/03/05 02:34:32;;;;;;;28.80;13.10;;;;;;;;;;5031487;28;20473;-74
2022/03/05 02:37:00;;;;;;;33.65;13.20;;;;;;;;;;5030925;28;20091;-74
2022/03/05 02:39:29;;;;;;;26.73;11.50;;;;;;;;;;5031086;28;20501;-73
2022/03/05 02:41:57;;;;;;;32.33;12.80;;;;;;;;;;5030743;28;20061;-74
2022/03/05 02:44:25;;;;;;;29.23;12.18;;;;;;;;;;5033415;28;20053;-74
2022/03/05 02:46:54;;;;;;;29.00;12.65;;;;;;;;;;5031992;28;20056;-74
2022/03/05 02:49:22;;;;;;;33.78;12.80;;;;;;;;;;5033470;28;20520;-73
2022/03/05 02:51:51;;;;;;;36.15;13.80;;;;;;;;;;5034470;28;20136;-74
2022/03/05 02:54:19;;;;;;;33.40;12.95;;;;;;;;;;5031734;28;20135;-74
2022/03/05 02:56:48;;;;;;;34.38;12.85;;;;;;;;;;5035986;28;20053;-74
2022/03/05 02:59:15;;;;;;;34.67;13.85;;;;;;;;;;5038155;28;20048;-74
2022/03/05 03:01:43;;;;;;;31.60;12.90;;;;;;;;;;5035996;28;20566;-74
2022/03/05 03:04:11;;;;;;;37.28;13.57;;;;;;;;;;5033905;28;20045;-74
2022/03/05 03:06:39;;;;;;;37.08;13.75;;;;;;;;;;5031384;28;20480;-74
2022/03/05 03:09:07;;;;;;;37.35;14.10;;;;;;;;;;5038189;28;20614;-74
2022/03/05 03:11:35;;;;;;;37.17;13.48;;;;;;;;;;5034019;28;20332;-74
2022/03/05 03:14:06;;;;;;;30.27;13.05;;;;;;;;;;5037601;28;20048;-74
2022/03/05 03:16:34;;;;;;;29.08;13.38;;;;;;;;;;5032350;28;20417;-73
2022/03/05 03:19:02;;;;;;;38.13;12.32;;;;;;;;;;5035276;28;20060;-74
2022/03/05 03:21:30;;;;;;;29.63;12.15;;;;;;;;;;5034742;28;20497;-74
2022/03/05 03:23:57;;;;;;;36.38;13.65;;;;;;;;;;5032454;28;20053;-74
2022/03/05 03:26:25;;;;;;;28.38;12.45;;;;;;;;;;5035950;28;20149;-74
2022/03/05 03:28:52;;;;;;;32.88;13.15;;;;;;;;;;5032235;28;20318;-75
2022/03/05 03:31:22;;;;;;;37.33;13.05;;;;;;;;;;5038934;28;20167;-76
2022/03/05 03:33:49;;;;;;;33.83;12.40;;;;;;;;;;5031399;28;20053;-76
2022/03/05 03:36:17;;;;;;;35.88;12.95;;;;;;;;;;5035825;28;20127;-75
2022/03/05 03:38:44;;;;;;;29.02;11.68;;;;;;;;;;5039901;28;20063;-75
2022/03/05 03:41:12;;;;;;;31.27;12.63;;;;;;;;;;5040085;28;20099;-75
2022/03/05 03:43:41;;;;;;;29.42;12.30;;;;;;;;;;5040297;28;20147;-75
2022/03/05 03:46:08;;;;;;;32.70;13.38;;;;;;;;;;5043481;28;20144;-74
2022/03/05 03:48:38;;;;;;;33.58;13.38;;;;;;;;;;5035581;28;20045;-74
2022/03/05 03:51:06;;;;;;;38.38;13.18;;;;;;;;;;5040102;28;20060;-75
2022/03/05 03:53:36;;;;;;;30.70;13.65;;;;;;;;;;5034002;28;20048;-74
2022/03/05 03:56:05;;;;;;;35.72;15.10;;;;;;;;;;5039690;28;20052;-74
2022/03/05 03:58:33;;;;;;;35.83;12.68;;;;;;;;;;5036649;28;20132;-75
2022/03/05 04:01:01;;;;;;;35.10;12.63;;;;;;;;;;5034153;28;20351;-75
2022/03/05 04:03:29;;;;;;;28.42;12.23;;;;;;;;;;5038595;28;20277;-75
2022/03/05 04:05:58;;;;;;;33.30;12.30;;;;;;;;;;5043489;28;20135;-74
2022/03/05 04:08:42;;;;;;;36.08;13.88;;;;;;;;;;5039676;28;20144;-75
2022/03/05 04:11:11;;;;;;;37.72;14.40;;;;;;;;;;5037479;28;20048;-74
2022/03/05 04:13:40;;;;;;;35.15;12.75;;;;;;;;;;5037640;28;20527;-74
2022/03/05 04:16:10;;;;;;;32.38;14.43;;;;;;;;;;5038075;28;20049;-74
2022/03/05 04:18:40;;;;;;;34.95;12.95;;;;;;;;;;5038583;28;20053;-75
2022/03/05 04:21:10;;;;;;;29.55;12.20;;;;;;;;;;5041096;28;20104;-74
2022/03/05 04:24:01;;;;;;;36.13;13.45;;;;;;;;;;5036134;28;20153;-74
2022/03/05 04:26:29;;;;;;;30.25;11.60;;;;;;;;;;5037546;28;20045;-74
2022/03/05 04:28:56;;;;;;;30.30;12.15;;;;;;;;;;5037602;28;20048;-75
2022/03/05 04:31:24;;;;;;;38.42;14.02;;;;;;;;;;5037545;28;20273;-75
2022/03/05 04:33:52;;;;;;;36.33;13.45;;;;;;;;;;5037953;28;20055;-74
2022/03/05 04:36:21;;;;;;;31.83;13.70;;;;;;;;;;5038153;28;20045;-74
2022/03/05 04:38:49;;;;;;;34.70;13.05;;;;;;;;;;5037440;28;20053;-76
2022/03/05 04:41:16;;;;;;;36.00;14.27;;;;;;;;;;5038146;28;20131;-75
2022/03/05 04:43:44;;;;;;;34.42;12.75;;;;;;;;;;5041644;28;20045;-75
2022/03/05 04:46:13;;;;;;;30.25;13.25;;;;;;;;;;5038922;28;20045;-73
2022/03/05 04:48:43;;;;;;;40.17;15.23;;;;;;;;;;5036702;28;20083;-75
2022/03/05 04:51:12;;;;;;;28.52;11.50;;;;;;;;;;5038698;28;20057;-74
2022/03/05 04:54:05;;;;;;;37.90;14.50;;;;;;;;;;5035852;28;20084;-75
2022/03/05 04:56:33;;;;;;;32.33;12.85;;;;;;;;;;5035815;28;20235;-75
2022/03/05 04:59:00;;;;;;;32.38;13.43;;;;;;;;;;5038068;28;20053;-75
2022/03/05 05:01:28;;;;;;;32.42;12.88;;;;;;;;;;5038113;28;20592;-74
2022/03/05 05:03:58;;;;;;;40.03;14.00;;;;;;;;;;5039259;28;20053;-75
2022/03/05 05:06:25;;;;;;;42.88;13.07;;;;;;;;;;5039117;28;20045;-74
2022/03/05 05:08:53;;;;;;;35.58;13.73;;;;;;;;;;5036352;28;20139;-73
2022/03/05 05:11:22;;;;;;;34.33;13.68;;;;;;;;;;5039123;28;20056;-74
2022/03/05 05:13:50;;;;;;;37.25;13.38;;;;;;;;;;5042287;28;20087;-73
2022/03/05 05:16:18;;;;;;;39.17;14.25;;;;;;;;;;5037843;28;20072;-74
2022/03/05 05:21:56;;;;;;;34.75;14.32;;;;;;;;;;5037193;28;20067;-76
2022/03/05 05:24:24;;;;;;;38.90;13.98;;;;;;;;;;5037356;28;20068;-74
2022/03/05 05:26:53;;;;;;;35.55;13.18;;;;;;;;;;5040913;28;20047;-74
2022/03/05 05:29:21;;;;;;;36.85;13.27;;;;;;;;;;5038533;28;20114;-74
2022/03/05 05:32:07;;;;;;;32.92;11.88;;;;;;;;;;5038726;28;20061;-74
2022/03/05 05:34:35;;;;;;;39.90;15.18;;;;;;;;;;5036311;28;20147;-74
2022/03/05 05:37:03;;;;;;;35.03;14.32;;;;;;;;;;5036793;28;20545;-73
2022/03/05 05:39:31;;;;;;;35.88;13.52;;;;;;;;;;5037128;28;20053;-73
2022/03/05 05:42:01;;;;;;;39.58;14.30;;;;;;;;;;5034770;28;20290;-74
2022/03/05 05:44:28;;;;;;;34.92;13.05;;;;;;;;;;5040332;28;20049;-74
2022/03/05 05:46:56;;;;;;;36.33;14.13;;;;;;;;;;5036911;28;20053;-73
2022/03/05 05:49:26;;;;;;;36.33;12.10;;;;;;;;;;5037722;28;20092;-73
2022/03/05 05:51:54;;;;;;;31.92;12.77;;;;;;;;;;5038428;28;20057;-73
2022/03/05 05:54:22;;;;;;;34.38;13.98;;;;;;;;;;5033445;28;20060;-73
2022/03/05 05:56:51;;;;;;;37.85;13.45;;;;;;;;;;5038525;28;20045;-73
2022/03/05 05:59:20;;;;;;;39.15;14.68;;;;;;;;;;5035741;28;20075;-73
2022/03/05 06:01:48;;;;;;;36.28;13.52;;;;;;;;;;5035227;28;20132;-73
2022/03/05 06:04:16;;;;;;;37.85;14.52;;;;;;;;;;5036304;28;20519;-73
2022/03/05 06:06:46;;;;;;;36.15;13.55;;;;;;;;;;5035396;28;20148;-73
2022/03/05 06:09:13;;;;;;;40.67;13.10;;;;;;;;;;5035129;28;20053;-73
2022/03/05 06:11:42;;;;;;;37.80;14.25;;;;;;;;;;5036502;28;20045;-73
2022/03/05 06:14:10;;;;;;;38.00;14.57;;;;;;;;;;5032923;28;20048;-73
2022/03/05 06:16:39;;;;;;;37.53;14.23;;;;;;;;;;5034246;28;20053;-76
2022/03/05 06:19:08;;;;;;;40.25;15.63;;;;;;;;;;5036727;28;20533;-75
2022/03/05 06:21:36;;;;;;;36.40;13.32;;;;;;;;;;5036335;28;20080;-72
2022/03/05 06:24:04;;;;;;;37.22;13.88;;;;;;;;;;5036231;28;20052;-73
2022/03/05 06:26:32;;;;;;;36.05;13.48;;;;;;;;;;5032297;28;20052;-73
2022/03/05 06:29:00;;;;;;;41.45;13.90;;;;;;;;;;5031841;28;20053;-73
2022/03/05 06:31:27;;;;;;;37.65;13.55;;;;;;;;;;5035390;28;20523;-74
2022/03/05 06:33:56;;;;;;;42.05;15.38;;;;;;;;;;5037137;28;20045;-74
2022/03/05 06:36:24;;;;;;;39.65;13.60;;;;;;;;;;5032916;28;20045;-73
2022/03/05 06:38:52;;;;;;;39.17;15.30;;;;;;;;;;5034714;28;20136;-74
2022/03/05 06:41:19;;;;;;;44.00;15.35;;;;;;;;;;5034072;28;20072;-73
2022/03/05 06:43:47;;;;;;;43.25;15.07;;;;;;;;;;5036011;28;20053;-74
2022/03/05 06:46:15;;;;;;;36.95;13.27;;;;;;;;;;5037301;28;20405;-74
2022/03/05 06:48:46;;;;;;;40.90;15.05;;;;;;;;;;5035858;28;20033;-73
2022/03/05 06:51:19;;;;;;;44.83;16.67;;;;;;;;;;5034817;28;20592;-74
2022/03/05 06:53:47;;;;;;;37.45;14.00;;;;;;;;;;5034116;28;20152;-74
2022/03/05 06:56:15;;;;;;;45.67;15.98;;;;;;;;;;5036149;28;20041;-74
2022/03/05 06:58:43;;;;;;;46.08;16.17;;;;;;;;;;5036191;28;20080;-74
2022/03/05 07:01:11;;;;;;;37.50;16.35;;;;;;;;;;5034723;28;20131;-74
2022/03/05 07:03:40;;;;;;;51.88;17.45;;;;;;;;;;5034687;28;20049;-74
2022/03/05 07:06:07;;;;;;;40.15;15.85;;;;;;;;;;5036553;28;20048;-75
2022/03/05 07:08:38;;;;;;;40.45;14.50;;;;;;;;;;5036237;28;20505;-75
2022/03/05 07:11:05;;;;;;;43.22;16.33;;;;;;;;;;5036680;28;20080;-73
2022/03/05 07:13:34;;;;;;;48.50;16.33;;;;;;;;;;5035869;28;20501;-75
2022/03/05 07:16:01;;;;;;;47.50;15.95;;;;;;;;;;5033415;28;20080;-75
2022/03/05 07:18:29;;;;;;;49.00;17.20;;;;;;;;;;5035789;28;20049;-75
2022/03/05 07:20:58;;;;;;;47.22;15.85;;;;;;;;;;5037603;28;20049;-76
2022/03/05 07:23:28;;;;;;;44.25;16.40;;;;;;;;;;5036781;28;20053;-74
2022/03/05 07:25:57;;;;;;;46.10;16.60;;;;;;;;;;5035735;28;20056;-74
2022/03/05 07:28:24;;;;;;;54.45;16.10;;;;;;;;;;5036429;28;20417;-74
2022/03/05 07:30:55;;;;;;;43.33;16.88;;;;;;;;;;5033136;28;20045;-74
2022/03/05 07:33:24;;;;;;;50.15;16.58;;;;;;;;;;5031806;28;20493;-74
2022/03/05 07:35:51;;;;;;;44.47;14.95;;;;;;;;;;5031301;28;20133;-74
2022/03/05 07:38:19;;;;;;;49.42;18.33;;;;;;;;;;5031721;28;20048;-74
2022/03/05 07:40:48;;;;;;;49.08;18.30;;;;;;;;;;5031741;28;20077;-74
2022/03/05 07:43:18;;;;;;;45.85;17.15;;;;;;;;;;5033820;28;20080;-74
2022/03/05 07:45:46;;;;;;;45.22;16.77;;;;;;;;;;5032201;28;20081;-75
2022/03/05 07:48:14;;;;;;;51.95;18.65;;;;;;;;;;5031120;28;20069;-76
2022/03/05 07:50:43;;;;;;;48.28;17.50;;;;;;;;;;5030694;28;20107;-76
2022/03/05 07:53:11;;;;;;;48.22;17.42;;;;;;;;;;5030022;28;20110;-73
2022/03/05 07:55:39;;;;;;;49.97;17.80;;;;;;;;;;5034323;28;20219;-73
2022/03/05 07:58:07;;;;;;;57.30;21.45;;;;;;;;;;5036450;28;20049;-73
2022/03/05 08:01:00;;;;;;;50.97;19.08;;;;;;;;;;5034733;28;20094;-74
2022/03/05 08:03:27;;;;;;;44.90;16.95;;;;;;;;;;5034617;28;20139;-74
2022/03/05 08:05:56;;;;;;;48.20;17.20;;;;;;;;;;5031825;28;20737;-73
2022/03/05 08:08:24;;;;;;;50.28;16.88;;;;;;;;;;5034290;28;20053;-74
2022/03/05 08:10:51;;;;;;;58.35;17.08;;;;;;;;;;5035559;28;20055;-74
2022/03/05 08:13:20;;;;;;;50.03;19.33;;;;;;;;;;5034106;28;20081;-74
2022/03/05 08:15:48;;;;;;;49.65;17.95;;;;;;;;;;5035709;28;20437;-74
2022/03/05 08:18:19;;;;;;;60.05;18.90;;;;;;;;;;5031028;28;20053;-73
2022/03/05 08:20:47;;;;;;;56.75;19.85;;;;;;;;;;5030865;28;20459;-73
2022/03/05 08:23:15;;;;;;;51.15;17.23;;;;;;;;;;5034036;28;20271;-73
2022/03/05 08:25:43;;;;;;;57.50;18.30;;;;;;;;;;5031463;28;20098;-73
2022/03/05 08:28:11;;;;;;;49.35;18.20;;;;;;;;;;5039567;28;20580;-75
2022/03/05 08:30:40;;;;;;;61.03;20.58;;;;;;;;;;5037749;28;20379;-75
2022/03/05 08:33:07;;;;;;;54.53;18.88;;;;;;;;;;5036708;28;20087;-75
2022/03/05 08:36:01;;;;;;;49.75;13.93;;;;;;;;;;5037293;28;20069;-75
2022/03/05 08:38:31;;;;;;;56.97;19.88;;;;;;;;;;5036154;28;20518;-76
2022/03/05 08:40:59;;;;;;;65.30;23.17;;;;;;;;;;5042127;28;20523;-76
2022/03/05 08:43:26;;;;;;;66.90;20.52;;;;;;;;;;5036376;28;20087;-74
2022/03/05 08:45:54;;;;;;;57.13;20.27;;;;;;;;;;5030974;28;20128;-75
2022/03/05 08:48:22;;;;;;;59.45;21.10;;;;;;;;;;5037277;28;20045;-76
2022/03/05 08:51:15;;;;;;;67.05;21.25;;;;;;;;;;5035523;28;20176;-75
2022/03/05 08:53:43;;;;;;;57.80;20.85;;;;;;;;;;5040563;28;20539;-75
2022/03/05 08:56:10;;;;;;;66.75;22.33;;;;;;;;;;5039783;28;20143;-75
2022/03/05 08:58:38;;;;;;;52.75;19.92;;;;;;;;;;5038464;28;20060;-75
2022/03/05 09:01:06;;;;;;;69.68;21.55;;;;;;;;;;5035598;28;20098;-74
2022/03/05 09:03:35;;;;;;;60.90;20.00;;;;;;;;;;5036610;28;20167;-75
2022/03/05 09:06:03;;;;;;;58.17;20.95;;;;;;;;;;5040275;28;20140;-74
2022/03/05 09:08:37;;;;;;;72.93;22.27;;;;;;;;;;5033943;28;20525;-73
2022/03/05 09:11:05;;;;;;;66.47;21.35;;;;;;;;;;5036789;28;20245;-76
2022/03/05 09:13:33;;;;;;;70.40;23.13;;;;;;;;;;5034461;28;20057;-76
2022/03/05 09:16:01;;;;;;;61.90;21.77;;;;;;;;;;5037922;28;20053;-75
2022/03/05 09:18:28;;;;;;;59.70;21.92;;;;;;;;;;5033025;28;20155;-75
2022/03/05 09:20:56;;;;;;;59.47;22.70;;;;;;;;;;5038567;28;20045;-75
2022/03/05 09:23:24;;;;;;;68.78;24.02;;;;;;;;;;5039613;28;20076;-75
2022/03/05 09:26:01;;;;;;;76.68;22.55;;;;;;;;;;5032728;28;20045;-76
2022/03/05 09:28:29;;;;;;;68.57;22.20;;;;;;;;;;5035002;28;20136;-75
2022/03/05 09:30:58;;;;;;;61.97;22.42;;;;;;;;;;5033887;28;20069;-76
2022/03/05 09:33:26;;;;;;;76.03;24.17;;;;;;;;;;5030007;28;20045;-76
2022/03/05 09:35:54;;;;;;;69.82;23.15;;;;;;;;;;5033791;28;20072;-75
2022/03/05 09:38:22;;;;;;;70.57;22.38;;;;;;;;;;5033407;28;20049;-74
2022/03/05 09:40:50;;;;;;;75.43;26.77;;;;;;;;;;5031081;28;20188;-74
2022/03/05 09:43:20;;;;;;;69.88;21.90;;;;;;;;;;5033751;28;20301;-74
2022/03/05 09:45:48;;;;;;;66.55;23.27;;;;;;;;;;5034517;28;20539;-74
2022/03/05 09:48:16;;;;;;;71.93;24.88;;;;;;;;;;5034890;28;20048;-74
2022/03/05 09:50:44;;;;;;;73.30;25.17;;;;;;;;;;5032895;28;20468;-74
2022/03/05 09:53:11;;;;;;;84.88;26.88;;;;;;;;;;5031277;28;20049;-74
2022/03/05 09:55:39;;;;;;;74.53;27.15;;;;;;;;;;5037253;28;20060;-74
2022/03/05 09:58:28;;;;;;;77.07;25.70;;;;;;;;;;5033417;28;20496;-74
2022/03/05 10:00:59;;;;;;;78.57;23.80;;;;;;;;;;5030923;28;20583;-74
2022/03/05 10:03:30;;;;;;;75.28;26.50;;;;;;;;;;5031820;28;20654;-74
2022/03/05 10:06:13;;;;;;;70.05;23.33;;;;;;;;;;5032016;28;20137;-74
2022/03/05 10:08:41;;;;;;;76.50;24.08;;;;;;;;;;5030373;28;20123;-74
2022/03/05 10:11:38;;;;;;;82.30;23.45;;;;;;;;;;5035051;28;20485;-74
2022/03/05 10:14:16;;;;;;;69.65;25.33;;;;;;;;;;5033775;28;20057;-74
2022/03/05 10:16:44;;;;;;;75.15;27.10;;;;;;;;;;5027610;28;20049;-74
2022/03/05 10:19:16;;;;;;;75.43;26.20;;;;;;;;;;5032350;28;20075;-74
2022/03/05 10:21:55;;;;;;;74.13;26.58;;;;;;;;;;5032405;28;20096;-74
2022/03/05 10:24:30;;;;;;;76.80;28.05;;;;;;;;;;5032471;28;20083;-74
2022/03/05 10:26:58;;;;;;;78.57;25.60;;;;;;;;;;5032202;28;20049;-74
2022/03/05 10:29:34;;;;;;;80.50;25.65;;;;;;;;;;5033419;28;20503;-76
2022/03/05 10:32:03;;;;;;;87.30;27.00;;;;;;;;;;5032973;28;20060;-76
2022/03/05 10:34:52;;;;;;;75.40;26.42;;;;;;;;;;5034826;28;20080;-75
2022/03/05 10:37:20;;;;;;;90.15;28.60;;;;;;;;;;5034551;28;20049;-73
2022/03/05 10:39:49;;;;;;;73.78;25.13;;;;;;;;;;5035941;28;20242;-76
2022/03/05 10:42:17;;;;;;;79.18;26.80;;;;;;;;;;5034858;28;20507;-75
2022/03/05 10:44:59;;;;;;;81.85;24.33;;;;;;;;;;5033568;28;20122;-73
2022/03/05 10:47:27;;;;;;;74.88;28.00;;;;;;;;;;5036211;28;20056;-73
2022/03/05 10:49:54;;;;;;;74.63;27.25;;;;;;;;;;5035965;28;20107;-73
2022/03/05 10:52:22;;;;;;;79.65;26.98;;;;;;;;;;5031017;28;20149;-75
2022/03/05 10:54:50;;;;;;;70.57;26.58;;;;;;;;;;5032299;28;20701;-73
2022/03/05 10:57:18;;;;;;;77.65;28.25;;;;;;;;;;5033019;28;20136;-75
2022/03/05 10:59:47;;;;;;;79.05;25.92;;;;;;;;;;5034573;28;20496;-73
2022/03/05 11:02:16;;;;;;;83.68;26.88;;;;;;;;;;5036884;28;20126;-73
2022/03/05 11:04:43;;;;;;;71.13;25.77;;;;;;;;;;5035813;28;20315;-73
2022/03/05 11:07:15;;;;;;;74.75;26.35;;;;;;;;;;5037203;28;20131;-76
2022/03/05 11:09:43;;;;;;;75.95;26.33;;;;;;;;;;5033252;28;20045;-75
2022/03/05 11:12:15;;;;;;;80.07;26.35;;;;;;;;;;5035428;28;20235;-77
2022/03/05 11:15:09;;;;;;;62.50;23.70;;;;;;;;;;5034566;28;20134;-74
2022/03/05 11:17:37;;;;;;;78.57;24.33;;;;;;;;;;5031106;28;20061;-72
2022/03/05 11:20:05;;;;;;;75.03;26.30;;;;;;;;;;5027207;28;20053;-75
2022/03/05 11:22:34;;;;;;;78.05;25.63;;;;;;;;;;5029632;28;20064;-72
2022/03/05 11:25:02;;;;;;;68.20;25.63;;;;;;;;;;5026100;28;20045;-72
2022/03/05 11:27:30;;;;;;;69.78;25.65;;;;;;;;;;5033997;28;20511;-74
2022/03/05 11:29:59;;;;;;;75.70;26.50;;;;;;;;;;5033767;28;20063;-72
2022/03/05 11:32:30;;;;;;;76.72;25.25;;;;;;;;;;5034481;28;20053;-72
2022/03/05 11:35:23;;;;;;;68.93;24.90;;;;;;;;;;5034063;28;20492;-72
2022/03/05 11:37:51;;;;;;;68.78;24.33;;;;;;;;;;5032888;28;20105;-72
2022/03/05 11:40:33;;;;;;;79.88;26.17;;;;;;;;;;5028786;28;20216;-72
2022/03/05 11:43:17;;;;;;;79.32;25.90;;;;;;;;;;5035091;28;20192;-72
2022/03/05 11:45:49;;;;;;;71.68;25.73;;;;;;;;;;5033469;28;20053;-73
2022/03/05 11:48:28;;;;;;;73.25;26.98;;;;;;;;;;5033545;28;20060;-72
2022/03/05 11:50:56;;;;;;;73.65;24.90;;;;;;;;;;5034826;28;20057;-72
2022/03/05 11:53:25;;;;;;;71.53;25.23;;;;;;;;;;5031872;28;20052;-72
2022/03/05 11:55:52;;;;;;;70.57;26.25;;;;;;;;;;5029002;28;20115;-72
2022/03/05 11:58:32;;;;;;;81.38;27.33;;;;;;;;;;5033106;28;20065;-72
2022/03/05 12:01:20;;;;;;;67.80;25.45;;;;;;;;;;5034324;28;20102;-72
2022/03/05 12:03:51;;;;;;;70.68;26.23;;;;;;;;;;5036457;28;20132;-72
2022/03/05 12:06:19;;;;;;;68.65;24.58;;;;;;;;;;5037313;28;20072;-72
2022/03/05 12:08:51;;;;;;;72.85;26.23;;;;;;;;;;5034573;28;20044;-73
2022/03/05 12:11:22;;;;;;;67.65;25.30;;;;;;;;;;5040140;28;20351;-72
2022/03/05 12:13:54;;;;;;;65.88;24.20;;;;;;;;;;5036505;28;20048;-72
2022/03/05 12:16:23;;;;;;;66.45;23.10;;;;;;;;;;5036810;28;20133;-72
2022/03/05 12:18:53;;;;;;;65.90;25.17;;;;;;;;;;5037752;28;20055;-72
2022/03/05 12:21:22;;;;;;;67.50;24.92;;;;;;;;;;5039225;28;20053;-72
2022/03/05 12:23:49;;;;;;;63.90;24.67;;;;;;;;;;5036813;28;20189;-72
2022/03/05 12:26:18;;;;;;;70.65;26.42;;;;;;;;;;5032445;28;20452;-72
2022/03/05 12:28:45;;;;;;;68.55;25.55;;;;;;;;;;5037967;28;20131;-73
2022/03/05 12:31:16;;;;;;;63.75;23.83;;;;;;;;;;5039777;28;20453;-73
2022/03/05 12:33:46;;;;;;;65.75;25.45;;;;;;;;;;5034901;28;20058;-73
2022/03/05 12:36:22;;;;;;;67.90;23.98;;;;;;;;;;5038704;28;20150;-73
2022/03/05 12:39:14;;;;;;;64.22;24.63;;;;;;;;;;5034040;28;20052;-73
2022/03/05 12:41:42;;;;;;;67.45;25.55;;;;;;;;;;5036405;28;20132;-73
2022/03/05 12:44:11;;;;;;;65.95;23.77;;;;;;;;;;5040633;28;20231;-73
2022/03/05 12:46:39;;;;;;;60.78;24.90;;;;;;;;;;5038520;28;21609;-75
2022/03/05 12:49:07;;;;;;;65.68;25.90;;;;;;;;;;5036405;28;20049;-76
2022/03/05 12:51:36;;;;;;;65.85;24.30;;;;;;;;;;5039677;28;20559;-76
2022/03/05 12:54:05;;;;;;;67.00;23.75;;;;;;;;;;5030914;28;20057;-77
2022/03/05 12:56:34;;;;;;;60.55;24.40;;;;;;;;;;5037039;28;20053;-77
2022/03/05 12:59:03;;;;;;;61.30;24.35;;;;;;;;;;5035273;28;20061;-76
2022/03/05 13:01:31;;;;;;;68.40;25.95;;;;;;;;;;5038039;28;20417;-76
2022/03/05 13:03:59;;;;;;;67.10;24.92;;;;;;;;;;5036293;28;20687;-75
2022/03/05 13:06:27;;;;;;;65.05;25.17;;;;;;;;;;5041374;28;20052;-75
2022/03/05 13:08:57;;;;;;;67.57;24.15;;;;;;;;;;5037541;28;20057;-76
2022/03/05 13:11:48;;;;;;;64.93;24.45;;;;;;;;;;5036625;28;20051;-76
2022/03/05 13:14:20;;;;;;;61.35;22.55;;;;;;;;;;5038347;28;20127;-75
2022/03/05 13:16:50;;;;;;;65.05;24.20;;;;;;;;;;5035041;28;20059;-75
2022/03/05 13:19:17;;;;;;;67.95;26.42;;;;;;;;;;5033033;28;20045;-76
2022/03/05 13:21:46;;;;;;;65.35;26.83;;;;;;;;;;5034891;28;20458;-75
2022/03/05 13:24:16;;;;;;;59.03;24.20;;;;;;;;;;5032716;28;20065;-75
2022/03/05 13:26:46;;;;;;;65.35;25.50;;;;;;;;;;5035814;28;20049;-75
2022/03/05 13:29:14;;;;;;;58.83;22.10;;;;;;;;;;5035091;28;20057;-75
2022/03/05 13:31:41;;;;;;;56.65;21.63;;;;;;;;;;5035378;28;20468;-76
2022/03/05 13:34:19;;;;;;;56.13;23.42;;;;;;;;;;5038489;28;20601;-75
2022/03/05 13:36:49;;;;;;;57.15;25.10;;;;;;;;;;5037544;28;20502;-76
2022/03/05 13:39:21;;;;;;;56.95;23.50;;;;;;;;;;5036911;28;20049;-75
2022/03/05 13:41:53;;;;;;;57.97;23.52;;;;;;;;;;5043525;28;20175;-75
2022/03/05 13:44:21;;;;;;;58.47;24.92;;;;;;;;;;5032031;28;20077;-75
2022/03/05 13:46:49;;;;;;;56.80;23.50;;;;;;;;;;5026020;28;20099;-75
2022/03/05 13:49:19;;;;;;;58.15;23.48;;;;;;;;;;5027440;28;20136;-75
2022/03/05 13:51:48;;;;;;;52.83;22.02;;;;;;;;;;5038130;28;20041;-76
2022/03/05 13:54:16;;;;;;;54.90;22.23;;;;;;;;;;5033187;28;20053;-75
2022/03/05 13:56:48;;;;;;;60.95;21.88;;;;;;;;;;5038077;28;21196;-75
2022/03/05 14:02:35;;;;;;;54.58;23.70;;;;;;;;;;5018003;28;20195;-75
2022/03/05 14:05:07;;;;;;;59.53;23.65;;;;;;;;;;5030850;28;20445;-75
2022/03/05 14:07:37;;;;;;;57.90;22.65;;;;;;;;;;5026874;28;20056;-75
2022/03/05 14:10:08;;;;;;;47.75;20.55;;;;;;;;;;5031459;28;20049;-76
2022/03/05 14:12:37;;;;;;;55.40;20.27;;;;;;;;;;5028719;28;20076;-76
2022/03/05 14:15:06;;;;;;;51.72;21.30;;;;;;;;;;5033233;28;20068;-76
2022/03/05 14:17:34;;;;;;;51.85;21.02;;;;;;;;;;5034734;28;20041;-76
2022/03/05 14:20:04;;;;;;;53.38;21.02;;;;;;;;;;5033512;28;20502;-76
2022/03/05 14:22:35;;;;;;;48.35;20.80;;;;;;;;;;5034235;28;20041;-76
2022/03/05 14:25:03;;;;;;;49.70;21.40;;;;;;;;;;5034468;28;20053;-76
2022/03/05 14:27:31;;;;;;;50.85;23.10;;;;;;;;;;5030596;28;20061;-76
2022/03/05 14:30:01;;;;;;;51.28;21.10;;;;;;;;;;5032280;28;20307;-77
2022/03/05 14:32:28;;;;;;;51.70;19.63;;;;;;;;;;5033183;28;20550;-76
2022/03/05 14:34:56;;;;;;;49.05;20.55;;;;;;;;;;5035031;28;20056;-77
2022/03/05 14:37:25;;;;;;;54.17;22.55;;;;;;;;;;5030501;28;20598;-76
2022/03/05 14:39:53;;;;;;;51.92;21.15;;;;;;;;;;5035022;28;20085;-76